Time;durP1;ratioP1;P1;durP2;ratioP2;P2;SDS_P1;SDS_P2;PMS_P1;PMS_P2;Temp;Humidity;BMP_temperature;BMP_pressure;BME280_temperature;BME280_humidity;BME280_pressure;Samples;Min_cycle;Max_cycle;Signal;HPM_P1;HPM_P2
2022/07/27 00:00:59;;;;;;;;;4.33;3.00;;;;;;;;5032220;28;51300;-64
2022/07/27 00:03:25;;;;;;;;;4.33;4.00;;;;;;;;5034389;28;51916;-64
2022/07/27 00:05:50;;;;;;;;;4.00;4.00;;;;;;;;5035533;28;50997;-65
2022/07/27 00:08:18;;;;;;;;;5.00;4.00;;;;;;;;5032274;28;51590;-64
2022/07/27 00:10:43;;;;;;;;;4.00;3.67;;;;;;;;5033315;28;51258;-65
2022/07/27 00:13:09;;;;;;;;;2.33;2.33;;;;;;;;5035395;28;51009;-64
2022/07/27 00:15:34;;;;;;;;;4.33;4.33;;;;;;;;5033232;28;51228;-64
2022/07/27 00:17:59;;;;;;;;;5.33;3.67;;;;;;;;5039568;28;51073;-65
2022/07/27 00:20:28;;;;;;;;;3.33;3.00;;;;;;;;5055596;28;51211;-64
2022/07/27 00:22:54;;;;;;;;;4.00;3.67;;;;;;;;5034752;28;52294;-64
2022/07/27 00:25:19;;;;;;;;;4.33;4.33;;;;;;;;5034479;28;50994;-64
2022/07/27 00:27:44;;;;;;;;;5.00;5.00;;;;;;;;5034529;28;50968;-64
2022/07/27 00:30:10;;;;;;;;;5.67;4.00;;;;;;;;5034423;28;51257;-64
2022/07/27 00:32:35;;;;;;;;;4.67;4.67;;;;;;;;5034744;28;51073;-64
2022/07/27 00:35:00;;;;;;;;;4.00;4.00;;;;;;;;5034398;28;51049;-65
2022/07/27 00:37:25;;;;;;;;;4.00;4.00;;;;;;;;5033830;28;51015;-64
2022/07/27 00:39:51;;;;;;;;;4.00;4.00;;;;;;;;5035014;28;51335;-65
2022/07/27 00:42:18;;;;;;;;;3.33;3.00;;;;;;;;5033389;28;51879;-65
2022/07/27 00:44:43;;;;;;;;;5.00;4.00;;;;;;;;5032944;28;50950;-65
2022/07/27 00:47:08;;;;;;;;;5.67;4.67;;;;;;;;5034076;28;51054;-67
2022/07/27 00:49:33;;;;;;;;;5.33;4.33;;;;;;;;5034306;28;50931;-64
2022/07/27 00:51:58;;;;;;;;;5.00;4.33;;;;;;;;5032101;28;51765;-64
2022/07/27 00:54:24;;;;;;;;;4.67;4.67;;;;;;;;5049304;28;51064;-64
2022/07/27 00:56:49;;;;;;;;;4.33;4.33;;;;;;;;5049723;28;51222;-65
2022/07/27 00:59:14;;;;;;;;;4.00;4.00;;;;;;;;5033687;28;51129;-64
2022/07/27 01:01:40;;;;;;;;;4.67;4.00;;;;;;;;5042537;28;51836;-64
2022/07/27 01:04:05;;;;;;;;;3.67;3.67;;;;;;;;5050791;28;51103;-65
2022/07/27 01:06:31;;;;;;;;;4.00;4.00;;;;;;;;5031826;28;51111;-65
2022/07/27 01:11:48;;;;;;;;;5.33;4.00;;;;;;;;5017991;28;51033;-64
2022/07/27 01:14:14;;;;;;;;;5.00;5.00;;;;;;;;5032526;28;52680;-66
2022/07/27 01:16:40;;;;;;;;;4.33;4.33;;;;;;;;5023477;28;51032;-63
2022/07/27 01:19:07;;;;;;;;;5.33;4.67;;;;;;;;5053549;28;50862;-63
2022/07/27 01:21:33;;;;;;;;;5.67;4.33;;;;;;;;5052564;28;51226;-64
2022/07/27 01:23:59;;;;;;;;;5.67;5.00;;;;;;;;5053083;28;51207;-64
2022/07/27 01:26:24;;;;;;;;;5.00;4.00;;;;;;;;5050947;28;50944;-64
2022/07/27 01:28:55;;;;;;;;;3.67;3.33;;;;;;;;5033561;28;50926;-65
2022/07/27 01:31:20;;;;;;;;;5.00;3.67;;;;;;;;5032341;28;51032;-65
2022/07/27 01:33:45;;;;;;;;;6.00;4.67;;;;;;;;5032709;28;50973;-64
2022/07/27 01:36:10;;;;;;;;;4.67;4.67;;;;;;;;5032539;28;50922;-64
2022/07/27 01:38:35;;;;;;;;;5.33;4.67;;;;;;;;5032342;28;50926;-64
2022/07/27 01:41:01;;;;;;;;;4.33;4.33;;;;;;;;5014743;28;51158;-64
2022/07/27 01:43:26;;;;;;;;;4.33;4.00;;;;;;;;5032856;28;51069;-65
2022/07/27 01:45:52;;;;;;;;;3.33;3.00;;;;;;;;5033274;28;50915;-64
2022/07/27 01:48:17;;;;;;;;;6.67;5.00;;;;;;;;5034358;28;51253;-64
2022/07/27 01:50:42;;;;;;;;;5.00;4.67;;;;;;;;5033529;28;52023;-65
2022/07/27 01:53:07;;;;;;;;;5.67;4.67;;;;;;;;5029709;28;51069;-64
2022/07/27 01:55:33;;;;;;;;;6.00;4.67;;;;;;;;5032658;28;51177;-65
2022/07/27 01:57:58;;;;;;;;;4.33;4.00;;;;;;;;5033141;28;51117;-65
2022/07/27 02:00:23;;;;;;;;;4.67;4.33;;;;;;;;5031451;28;51845;-64
2022/07/27 02:02:48;;;;;;;;;6.00;6.00;;;;;;;;5049310;28;51117;-65
2022/07/27 02:05:13;;;;;;;;;4.67;4.33;;;;;;;;5032305;28;51116;-64
2022/07/27 02:07:39;;;;;;;;;6.00;5.33;;;;;;;;5032570;28;51730;-65
2022/07/27 02:10:05;;;;;;;;;7.33;5.67;;;;;;;;5014373;28;51928;-65
2022/07/27 02:12:36;;;;;;;;;4.67;4.67;;;;;;;;5032266;28;51101;-63
2022/07/27 02:15:03;;;;;;;;;6.33;5.33;;;;;;;;5031511;28;50852;-63
2022/07/27 02:17:28;;;;;;;;;3.67;3.67;;;;;;;;5022045;28;53002;-64
2022/07/27 02:19:53;;;;;;;;;5.33;4.67;;;;;;;;5031708;28;51135;-65
2022/07/27 02:22:18;;;;;;;;;6.33;5.33;;;;;;;;5031931;28;50962;-67
2022/07/27 02:24:43;;;;;;;;;5.00;5.00;;;;;;;;5034786;28;50899;-65
2022/07/27 02:27:09;;;;;;;;;5.00;4.33;;;;;;;;5033977;28;51922;-65
2022/07/27 02:29:34;;;;;;;;;6.33;6.00;;;;;;;;5032563;28;51838;-65
2022/07/27 02:31:59;;;;;;;;;5.67;5.00;;;;;;;;5031966;28;50955;-64
2022/07/27 02:34:24;;;;;;;;;6.00;5.00;;;;;;;;5032045;28;51062;-65
2022/07/27 02:36:50;;;;;;;;;5.00;5.00;;;;;;;;5014179;28;51117;-64
2022/07/27 02:39:15;;;;;;;;;5.33;4.33;;;;;;;;5030956;28;51916;-64
2022/07/27 02:41:40;;;;;;;;;6.67;6.00;;;;;;;;5032106;28;50978;-65
2022/07/27 02:44:05;;;;;;;;;5.00;5.00;;;;;;;;5031772;28;51084;-64
2022/07/27 02:46:30;;;;;;;;;6.33;5.33;;;;;;;;5032488;28;51409;-64
2022/07/27 02:48:56;;;;;;;;;6.33;6.33;;;;;;;;5031697;28;51811;-65
2022/07/27 02:51:21;;;;;;;;;6.00;6.00;;;;;;;;5030777;28;51202;-64
2022/07/27 02:53:46;;;;;;;;;5.00;5.00;;;;;;;;5029641;28;50949;-64
2022/07/27 02:56:11;;;;;;;;;4.67;4.67;;;;;;;;5031666;28;50898;-64
2022/07/27 02:58:36;;;;;;;;;5.00;5.00;;;;;;;;5031686;28;51847;-65
2022/07/27 03:01:03;;;;;;;;;6.00;6.00;;;;;;;;5011972;28;51067;-65
2022/07/27 03:03:28;;;;;;;;;4.00;4.00;;;;;;;;5031442;28;51069;-65
2022/07/27 03:05:53;;;;;;;;;6.33;5.00;;;;;;;;5017021;28;51286;-65
2022/07/27 03:08:18;;;;;;;;;7.00;6.00;;;;;;;;5015061;28;51993;-64
2022/07/27 03:10:43;;;;;;;;;5.00;5.00;;;;;;;;5015081;28;51087;-65
2022/07/27 03:13:09;;;;;;;;;5.00;5.00;;;;;;;;5015353;28;51205;-65
2022/07/27 03:15:34;;;;;;;;;9.67;9.67;;;;;;;;5012252;28;50802;-64
2022/07/27 03:17:59;;;;;;;;;5.33;5.33;;;;;;;;5011601;28;54053;-64
2022/07/27 03:20:25;;;;;;;;;6.00;5.33;;;;;;;;5014740;28;50906;-64
2022/07/27 03:22:50;;;;;;;;;4.33;4.33;;;;;;;;5014872;28;50908;-64
2022/07/27 03:25:15;;;;;;;;;6.00;6.00;;;;;;;;5015311;28;51207;-64
2022/07/27 03:27:40;;;;;;;;;8.67;8.00;;;;;;;;5014357;28;51013;-64
2022/07/27 03:30:06;;;;;;;;;1.00;1.00;;;;;;;;5016135;28;51110;-64
2022/07/27 03:32:31;;;;;;;;;6.00;6.00;;;;;;;;5016189;28;51016;-64
2022/07/27 03:34:56;;;;;;;;;7.00;5.00;;;;;;;;5022166;28;51070;-64
2022/07/27 03:37:22;;;;;;;;;6.00;6.00;;;;;;;;5024726;28;51059;-64
2022/07/27 03:39:47;;;;;;;;;6.00;6.00;;;;;;;;5015298;28;51027;-64
2022/07/27 03:42:12;;;;;;;;;3.00;3.00;;;;;;;;5016310;28;50977;-64
2022/07/27 03:44:38;;;;;;;;;5.33;5.00;;;;;;;;5015097;28;51086;-64
2022/07/27 03:47:03;;;;;;;;;7.67;7.00;;;;;;;;5015913;28;52102;-64
2022/07/27 03:49:28;;;;;;;;;6.33;6.33;;;;;;;;5016220;28;51069;-65
2022/07/27 03:51:53;;;;;;;;;5.67;5.67;;;;;;;;5019547;28;51330;-65
2022/07/27 03:54:19;;;;;;;;;6.67;6.33;;;;;;;;5002463;28;50870;-66
2022/07/27 03:56:44;;;;;;;;;6.67;6.67;;;;;;;;5015245;28;51239;-64
2022/07/27 03:59:09;;;;;;;;;5.00;5.00;;;;;;;;5027550;28;51258;-64
2022/07/27 04:01:34;;;;;;;;;7.33;5.67;;;;;;;;5023575;28;51209;-64
2022/07/27 04:04:00;;;;;;;;;5.67;5.00;;;;;;;;5034957;28;51125;-64
2022/07/27 04:06:25;;;;;;;;;4.67;4.67;;;;;;;;5034652;28;51796;-64
2022/07/27 04:08:50;;;;;;;;;5.00;5.00;;;;;;;;5020155;28;51181;-64
2022/07/27 04:11:15;;;;;;;;;5.33;5.33;;;;;;;;5025060;28;51045;-64
2022/07/27 04:13:42;;;;;;;;;5.00;5.00;;;;;;;;5011868;28;51449;-64
2022/07/27 04:16:07;;;;;;;;;5.33;5.00;;;;;;;;5006458;28;52023;-64
2022/07/27 04:18:32;;;;;;;;;5.00;5.00;;;;;;;;5005944;28;50965;-64
2022/07/27 04:21:00;;;;;;;;;5.33;5.00;;;;;;;;5026014;28;50897;-64
2022/07/27 04:23:25;;;;;;;;;5.67;5.00;;;;;;;;5012905;28;51049;-63
2022/07/27 04:25:51;;;;;;;;;5.00;5.00;;;;;;;;5006098;28;50971;-64
2022/07/27 04:28:16;;;;;;;;;6.00;4.00;;;;;;;;5000794;28;51004;-64
2022/07/27 04:30:41;;;;;;;;;5.67;5.00;;;;;;;;5013704;28;50906;-64
2022/07/27 04:33:06;;;;;;;;;5.00;3.67;;;;;;;;5015105;28;51270;-63
2022/07/27 04:35:32;;;;;;;;;5.67;5.33;;;;;;;;5024467;28;51876;-63
2022/07/27 04:37:57;;;;;;;;;4.00;4.00;;;;;;;;5000774;28;51308;-63
2022/07/27 04:40:22;;;;;;;;;2.00;2.00;;;;;;;;5014401;28;51230;-64
2022/07/27 04:42:47;;;;;;;;;3.00;3.00;;;;;;;;5013293;28;51063;-64
2022/07/27 04:45:12;;;;;;;;;4.67;4.33;;;;;;;;5010137;28;53152;-65
2022/07/27 04:47:38;;;;;;;;;4.00;4.00;;;;;;;;5018655;28;51123;-65
2022/07/27 04:50:04;;;;;;;;;4.67;4.33;;;;;;;;5021482;28;51126;-64
2022/07/27 04:52:29;;;;;;;;;5.00;4.00;;;;;;;;5028657;28;51146;-64
2022/07/27 04:54:54;;;;;;;;;7.67;5.00;;;;;;;;5012966;28;51133;-64
2022/07/27 04:57:21;;;;;;;;;7.00;5.00;;;;;;;;5014120;28;51139;-64
2022/07/27 04:59:46;;;;;;;;;3.33;3.00;;;;;;;;5017208;28;51018;-64
2022/07/27 05:02:12;;;;;;;;;5.00;4.00;;;;;;;;5018346;28;51078;-64
2022/07/27 05:04:37;;;;;;;;;6.00;5.00;;;;;;;;5021900;28;51100;-64
2022/07/27 05:07:02;;;;;;;;;4.67;4.67;;;;;;;;5031831;28;51271;-64
2022/07/27 05:09:27;;;;;;;;;4.00;4.00;;;;;;;;5013724;28;51002;-65
2022/07/27 05:11:53;;;;;;;;;8.00;6.33;;;;;;;;5013863;28;51340;-64
2022/07/27 05:14:18;;;;;;;;;3.33;3.33;;;;;;;;5013178;28;52225;-64
2022/07/27 05:16:44;;;;;;;;;4.33;3.67;;;;;;;;5003195;28;51039;-64
2022/07/27 05:19:09;;;;;;;;;5.00;4.00;;;;;;;;5013153;28;50953;-64
2022/07/27 05:21:34;;;;;;;;;5.00;5.00;;;;;;;;5014207;28;51424;-64
2022/07/27 05:23:59;;;;;;;;;5.67;5.00;;;;;;;;5012995;28;51879;-64
2022/07/27 05:26:24;;;;;;;;;5.00;3.33;;;;;;;;5013118;28;50868;-65
2022/07/27 05:28:50;;;;;;;;;5.00;5.00;;;;;;;;5013358;28;51081;-64
2022/07/27 05:31:15;;;;;;;;;4.00;4.00;;;;;;;;5012622;28;51035;-64
2022/07/27 05:33:40;;;;;;;;;4.67;4.33;;;;;;;;5013574;28;51131;-64
2022/07/27 05:36:06;;;;;;;;;4.33;3.67;;;;;;;;5013253;28;50938;-65
2022/07/27 05:38:33;;;;;;;;;4.00;4.00;;;;;;;;5015233;28;51253;-64
2022/07/27 05:40:59;;;;;;;;;3.00;3.00;;;;;;;;5028211;28;51297;-65
2022/07/27 05:43:24;;;;;;;;;4.00;3.00;;;;;;;;5018568;28;51319;-65
2022/07/27 05:45:49;;;;;;;;;5.00;4.67;;;;;;;;5013010;28;51023;-64
2022/07/27 05:48:14;;;;;;;;;4.00;3.00;;;;;;;;5012909;28;51167;-64
2022/07/27 05:50:39;;;;;;;;;4.00;4.00;;;;;;;;5017552;28;51102;-65
2022/07/27 05:53:05;;;;;;;;;4.00;3.67;;;;;;;;5017443;28;50984;-65
2022/07/27 05:55:30;;;;;;;;;4.00;4.00;;;;;;;;5029728;28;51224;-68
2022/07/27 05:57:55;;;;;;;;;3.67;3.00;;;;;;;;5013212;28;51047;-64
2022/07/27 06:00:20;;;;;;;;;2.67;2.67;;;;;;;;5011035;28;50909;-65
2022/07/27 06:02:45;;;;;;;;;4.00;3.33;;;;;;;;5032745;28;51093;-65
2022/07/27 06:05:11;;;;;;;;;4.33;4.33;;;;;;;;5032419;28;51106;-64
2022/07/27 06:10:20;;;;;;;;;7.00;5.33;;;;;;;;5012865;28;51073;-65
2022/07/27 06:12:45;;;;;;;;;3.67;2.00;;;;;;;;5021444;28;52253;-65
2022/07/27 06:15:11;;;;;;;;;4.67;3.67;;;;;;;;5017328;28;51100;-65
2022/07/27 06:17:36;;;;;;;;;4.00;4.00;;;;;;;;5004287;28;50969;-65
2022/07/27 06:20:05;;;;;;;;;5.00;4.00;;;;;;;;5012287;28;51130;-63
2022/07/27 06:22:30;;;;;;;;;3.00;3.00;;;;;;;;5012120;28;52021;-64
2022/07/27 06:24:56;;;;;;;;;5.33;4.00;;;;;;;;5012754;28;50835;-65
2022/07/27 06:27:21;;;;;;;;;3.67;3.67;;;;;;;;5013280;28;51300;-65
2022/07/27 06:29:50;;;;;;;;;4.00;3.67;;;;;;;;5013214;28;50950;-65
2022/07/27 06:32:15;;;;;;;;;5.67;4.00;;;;;;;;4993525;28;51368;-65
2022/07/27 06:34:40;;;;;;;;;5.00;5.00;;;;;;;;5012833;28;51026;-64
2022/07/27 06:37:08;;;;;;;;;4.00;4.00;;;;;;;;5012781;28;51359;-65
2022/07/27 06:39:34;;;;;;;;;3.00;3.00;;;;;;;;5012382;28;51222;-65
2022/07/27 06:41:59;;;;;;;;;4.33;3.33;;;;;;;;5011220;28;51094;-64
2022/07/27 06:44:27;;;;;;;;;2.67;2.00;;;;;;;;5013094;28;51083;-65
2022/07/27 06:46:53;;;;;;;;;5.00;4.00;;;;;;;;4996285;28;51105;-65
2022/07/27 06:49:21;;;;;;;;;3.67;3.00;;;;;;;;5014139;28;50996;-64
2022/07/27 06:51:46;;;;;;;;;4.00;4.00;;;;;;;;5011515;28;52007;-64
2022/07/27 06:54:12;;;;;;;;;5.00;4.33;;;;;;;;4988711;28;51175;-66
2022/07/27 06:56:37;;;;;;;;;2.33;1.67;;;;;;;;5004619;28;50934;-66
2022/07/27 06:59:03;;;;;;;;;6.33;5.33;;;;;;;;5013794;28;51199;-63
2022/07/27 07:01:28;;;;;;;;;3.00;3.00;;;;;;;;5011083;28;52082;-65
2022/07/27 07:03:54;;;;;;;;;6.00;6.00;;;;;;;;5010590;28;50922;-63
2022/07/27 07:06:20;;;;;;;;;4.00;3.33;;;;;;;;5011802;28;50993;-65
2022/07/27 07:08:45;;;;;;;;;2.00;2.00;;;;;;;;5011982;28;51437;-64
2022/07/27 07:11:10;;;;;;;;;5.00;4.00;;;;;;;;5012026;28;51818;-64
2022/07/27 07:13:36;;;;;;;;;5.00;4.00;;;;;;;;5010941;28;50937;-64
2022/07/27 07:16:01;;;;;;;;;6.33;6.33;;;;;;;;5006388;28;50981;-65
2022/07/27 07:18:26;;;;;;;;;6.00;6.00;;;;;;;;5008547;28;51306;-64
2022/07/27 07:20:53;;;;;;;;;4.33;3.67;;;;;;;;5012398;28;52379;-64
2022/07/27 07:23:18;;;;;;;;;3.33;3.33;;;;;;;;5010312;28;51078;-64
2022/07/27 07:25:43;;;;;;;;;7.00;6.00;;;;;;;;5012069;28;50921;-64
2022/07/27 07:28:09;;;;;;;;;4.67;4.00;;;;;;;;5011714;28;51064;-64
2022/07/27 07:30:34;;;;;;;;;6.33;5.33;;;;;;;;5011849;28;51741;-64
2022/07/27 07:33:00;;;;;;;;;4.00;4.00;;;;;;;;5012619;28;51210;-64
2022/07/27 07:35:26;;;;;;;;;4.67;4.67;;;;;;;;5010866;28;51004;-64
2022/07/27 07:37:51;;;;;;;;;6.00;5.00;;;;;;;;5011038;28;50926;-64
2022/07/27 07:40:17;;;;;;;;;4.00;3.67;;;;;;;;4992969;28;53203;-64
2022/07/27 07:42:49;;;;;;;;;4.67;4.33;;;;;;;;5011378;28;50911;-64
2022/07/27 07:45:14;;;;;;;;;4.33;4.00;;;;;;;;4992548;28;51091;-66
2022/07/27 07:47:40;;;;;;;;;3.00;3.00;;;;;;;;5011097;28;50922;-65
2022/07/27 07:50:05;;;;;;;;;7.00;5.33;;;;;;;;5012546;28;51195;-64
2022/07/27 07:52:34;;;;;;;;;4.67;4.67;;;;;;;;5021313;28;51110;-64
2022/07/27 07:54:59;;;;;;;;;3.67;3.67;;;;;;;;5014696;28;50873;-64
2022/07/27 07:57:24;;;;;;;;;4.33;4.33;;;;;;;;5013495;28;51209;-65
2022/07/27 07:59:50;;;;;;;;;6.33;6.33;;;;;;;;5014760;28;52172;-65
2022/07/27 08:02:15;;;;;;;;;4.00;3.00;;;;;;;;5028742;28;50834;-64
2022/07/27 08:04:40;;;;;;;;;6.67;5.00;;;;;;;;5035418;28;51115;-64
2022/07/27 08:07:06;;;;;;;;;5.00;4.33;;;;;;;;5034542;28;51284;-64
2022/07/27 08:09:31;;;;;;;;;7.00;6.00;;;;;;;;5015577;28;51208;-65
2022/07/27 08:11:56;;;;;;;;;7.00;6.67;;;;;;;;5014353;28;51419;-64
2022/07/27 08:14:22;;;;;;;;;5.67;5.67;;;;;;;;5014375;28;50834;-65
2022/07/27 08:16:48;;;;;;;;;5.00;5.00;;;;;;;;5004418;28;51237;-64
2022/07/27 08:19:13;;;;;;;;;6.00;6.00;;;;;;;;5013659;28;51208;-64
2022/07/27 08:21:38;;;;;;;;;7.00;6.67;;;;;;;;5012926;28;51236;-64
2022/07/27 08:24:03;;;;;;;;;4.67;4.67;;;;;;;;5014087;28;51108;-64
2022/07/27 08:26:29;;;;;;;;;5.00;5.00;;;;;;;;5012533;28;51130;-64
2022/07/27 08:28:54;;;;;;;;;6.00;5.00;;;;;;;;5012137;28;51592;-65
2022/07/27 08:31:19;;;;;;;;;7.67;6.00;;;;;;;;5012927;28;50995;-64
2022/07/27 08:33:44;;;;;;;;;8.00;8.00;;;;;;;;5013921;28;51059;-64
2022/07/27 08:36:10;;;;;;;;;5.33;4.33;;;;;;;;5014039;28;51141;-64
2022/07/27 08:38:35;;;;;;;;;6.33;6.33;;;;;;;;5013567;28;51123;-65
2022/07/27 08:41:01;;;;;;;;;7.00;6.67;;;;;;;;5014109;28;51200;-64
2022/07/27 08:43:26;;;;;;;;;5.33;5.33;;;;;;;;5013882;28;50896;-65
2022/07/27 08:45:56;;;;;;;;;7.67;7.00;;;;;;;;5013815;28;51312;-64
2022/07/27 08:48:23;;;;;;;;;6.67;6.67;;;;;;;;5013498;28;51954;-65
2022/07/27 08:50:48;;;;;;;;;6.33;6.33;;;;;;;;5010779;28;51209;-64
2022/07/27 08:53:15;;;;;;;;;6.33;6.00;;;;;;;;5021938;28;51690;-64
2022/07/27 08:55:42;;;;;;;;;5.67;5.00;;;;;;;;5028551;28;51311;-64
2022/07/27 08:58:08;;;;;;;;;4.67;4.00;;;;;;;;5013311;28;52755;-65
2022/07/27 09:00:33;;;;;;;;;5.00;5.00;;;;;;;;5011869;28;50951;-65
2022/07/27 09:02:59;;;;;;;;;6.67;6.00;;;;;;;;5013041;28;50953;-63
2022/07/27 09:05:25;;;;;;;;;7.00;6.33;;;;;;;;5012908;28;50933;-64
2022/07/27 09:07:51;;;;;;;;;6.00;6.00;;;;;;;;5011794;28;51754;-63
2022/07/27 09:10:29;;;;;;;;;5.00;4.00;;;;;;;;5012740;28;50904;-63
2022/07/27 09:12:55;;;;;;;;;6.00;6.00;;;;;;;;5013414;28;51018;-64
2022/07/27 09:15:20;;;;;;;;;7.00;7.00;;;;;;;;5013068;28;51095;-63
2022/07/27 09:17:45;;;;;;;;;7.00;6.00;;;;;;;;4995496;28;51917;-64
2022/07/27 09:20:15;;;;;;;;;8.67;8.00;;;;;;;;5011924;28;51023;-64
2022/07/27 09:22:48;;;;;;;;;7.00;5.67;;;;;;;;5012839;28;51143;-64
2022/07/27 09:25:14;;;;;;;;;5.00;5.00;;;;;;;;5012979;28;51180;-63
2022/07/27 09:27:40;;;;;;;;;6.33;5.67;;;;;;;;5012526;28;52280;-64
2022/07/27 09:30:07;;;;;;;;;6.00;6.00;;;;;;;;5012393;28;50922;-65
2022/07/27 09:32:33;;;;;;;;;3.67;3.67;;;;;;;;5010658;28;51257;-63
2022/07/27 09:35:12;;;;;;;;;4.33;4.33;;;;;;;;5012203;28;51063;-63
2022/07/27 09:37:38;;;;;;;;;5.00;4.33;;;;;;;;5012134;28;52425;-63
2022/07/27 09:40:13;;;;;;;;;5.33;5.00;;;;;;;;5012339;28;51016;-64
2022/07/27 09:42:39;;;;;;;;;5.67;5.67;;;;;;;;5011586;28;52631;-63
2022/07/27 09:45:24;;;;;;;;;5.33;5.00;;;;;;;;5012829;28;50834;-65
2022/07/27 09:47:51;;;;;;;;;4.67;4.33;;;;;;;;5012676;28;51494;-64
2022/07/27 09:50:22;;;;;;;;;4.67;4.67;;;;;;;;5013089;28;50937;-64
2022/07/27 09:52:47;;;;;;;;;3.67;3.00;;;;;;;;5010250;28;51042;-64
2022/07/27 09:55:13;;;;;;;;;7.00;5.67;;;;;;;;5011756;28;50925;-64
2022/07/27 09:57:51;;;;;;;;;3.67;3.67;;;;;;;;5012243;28;52319;-63
2022/07/27 10:00:17;;;;;;;;;4.00;4.00;;;;;;;;5011685;28;50964;-64
2022/07/27 10:02:42;;;;;;;;;3.00;3.00;;;;;;;;5012651;28;51127;-63
2022/07/27 10:05:08;;;;;;;;;5.00;4.00;;;;;;;;5012052;28;51087;-64
2022/07/27 10:07:34;;;;;;;;;5.33;5.00;;;;;;;;5031749;28;52173;-64
2022/07/27 10:10:01;;;;;;;;;3.00;3.00;;;;;;;;5033912;28;51032;-63
2022/07/27 10:12:29;;;;;;;;;3.67;3.67;;;;;;;;5033692;28;50888;-65
2022/07/27 10:14:54;;;;;;;;;4.67;4.00;;;;;;;;5030563;28;51240;-64
2022/07/27 10:17:20;;;;;;;;;4.67;3.67;;;;;;;;5003374;28;52131;-63
2022/07/27 10:19:46;;;;;;;;;3.33;3.33;;;;;;;;5012814;28;51035;-64
2022/07/27 10:22:12;;;;;;;;;3.00;3.00;;;;;;;;5013085;28;50869;-63
2022/07/27 10:24:37;;;;;;;;;4.00;3.00;;;;;;;;5012816;28;51057;-64
2022/07/27 10:27:38;;;;;;;;;4.00;3.00;;;;;;;;5011709;28;51784;-64
2022/07/27 10:30:04;;;;;;;;;3.00;3.00;;;;;;;;4931756;28;50989;-67
2022/07/27 10:32:31;;;;;;;;;2.00;2.00;;;;;;;;4987897;28;50945;-64
2022/07/27 10:34:56;;;;;;;;;9.33;9.00;;;;;;;;5012375;28;50889;-64
2022/07/27 10:37:29;;;;;;;;;4.00;3.00;;;;;;;;5012054;28;51054;-65
2022/07/27 10:42:43;;;;;;;;;2.67;2.67;;;;;;;;5011415;28;51247;-65
2022/07/27 10:45:10;;;;;;;;;5.00;4.00;;;;;;;;5012741;28;51404;-65
2022/07/27 10:47:38;;;;;;;;;3.33;3.33;;;;;;;;5012202;28;52207;-65
2022/07/27 10:50:15;;;;;;;;;5.00;4.00;;;;;;;;5011635;28;50916;-64
2022/07/27 10:52:42;;;;;;;;;4.00;4.00;;;;;;;;5012994;28;51309;-65
2022/07/27 10:55:07;;;;;;;;;3.00;3.00;;;;;;;;5012618;28;51108;-64
2022/07/27 10:57:35;;;;;;;;;2.67;2.67;;;;;;;;5006598;28;51849;-64
2022/07/27 11:00:08;;;;;;;;;4.00;4.00;;;;;;;;5011627;28;50998;-64
2022/07/27 11:02:40;;;;;;;;;5.00;4.33;;;;;;;;5008714;28;51254;-64
2022/07/27 11:05:06;;;;;;;;;4.67;4.67;;;;;;;;5011088;28;51147;-65
2022/07/27 11:07:31;;;;;;;;;3.67;3.33;;;;;;;;5010581;28;51757;-64
2022/07/27 11:09:58;;;;;;;;;3.00;2.33;;;;;;;;5011797;28;51065;-65
2022/07/27 11:12:26;;;;;;;;;3.67;3.00;;;;;;;;5011684;28;51011;-64
2022/07/27 11:14:53;;;;;;;;;5.00;5.00;;;;;;;;5009241;28;51329;-65
2022/07/27 11:17:23;;;;;;;;;4.00;4.00;;;;;;;;5007632;28;52285;-65
2022/07/27 11:19:55;;;;;;;;;5.33;4.67;;;;;;;;5030751;28;51172;-64
2022/07/27 11:22:41;;;;;;;;;3.00;2.67;;;;;;;;5025608;28;51076;-64
2022/07/27 11:25:06;;;;;;;;;5.00;4.00;;;;;;;;5011882;28;51336;-65
2022/07/27 11:27:32;;;;;;;;;3.67;3.67;;;;;;;;5014157;28;52270;-65
2022/07/27 11:29:57;;;;;;;;;4.00;4.00;;;;;;;;5015263;28;51237;-65
2022/07/27 11:32:23;;;;;;;;;4.67;4.00;;;;;;;;5014847;28;50908;-65
2022/07/27 11:34:48;;;;;;;;;3.00;3.00;;;;;;;;5014836;28;51335;-64
2022/07/27 11:37:18;;;;;;;;;4.33;4.33;;;;;;;;5012949;28;52239;-64
2022/07/27 11:39:44;;;;;;;;;4.33;3.67;;;;;;;;5013840;28;50809;-65
2022/07/27 11:42:10;;;;;;;;;4.33;3.33;;;;;;;;5014680;28;51130;-64
2022/07/27 11:44:36;;;;;;;;;5.00;4.00;;;;;;;;5014423;28;50848;-63
2022/07/27 11:47:01;;;;;;;;;3.33;3.33;;;;;;;;5014691;28;52140;-65
2022/07/27 11:49:31;;;;;;;;;3.00;3.00;;;;;;;;5014084;28;50872;-64
2022/07/27 11:51:58;;;;;;;;;4.67;4.33;;;;;;;;5012736;28;51021;-64
2022/07/27 11:54:27;;;;;;;;;3.00;3.00;;;;;;;;5013469;28;50858;-64
2022/07/27 11:56:54;;;;;;;;;4.67;4.00;;;;;;;;5012265;28;52977;-64
2022/07/27 11:59:25;;;;;;;;;2.33;2.33;;;;;;;;5026929;28;51027;-64
2022/07/27 12:01:55;;;;;;;;;2.00;2.00;;;;;;;;5025535;28;51003;-65
2022/07/27 12:04:21;;;;;;;;;4.00;4.00;;;;;;;;5013189;28;51109;-65
2022/07/27 12:07:02;;;;;;;;;4.00;3.00;;;;;;;;5032255;28;51884;-63
2022/07/27 12:09:29;;;;;;;;;3.00;3.00;;;;;;;;5033710;28;50891;-63
2022/07/27 12:11:59;;;;;;;;;2.00;2.00;;;;;;;;5023041;28;51137;-65
2022/07/27 12:14:28;;;;;;;;;3.33;3.33;;;;;;;;5010167;28;51171;-64
2022/07/27 12:17:06;;;;;;;;;2.00;2.00;;;;;;;;5003358;28;51097;-64
2022/07/27 12:19:31;;;;;;;;;2.00;2.00;;;;;;;;5030338;28;51055;-65
2022/07/27 12:21:56;;;;;;;;;2.67;2.67;;;;;;;;5019302;28;51235;-64
2022/07/27 12:24:40;;;;;;;;;3.00;2.00;;;;;;;;5011422;28;51329;-65
2022/07/27 12:27:25;;;;;;;;;3.00;3.00;;;;;;;;5013393;28;51040;-64
2022/07/27 12:30:03;;;;;;;;;3.00;3.00;;;;;;;;5012953;28;50995;-66
2022/07/27 12:32:29;;;;;;;;;3.00;2.00;;;;;;;;5013539;28;51090;-65
2022/07/27 12:34:55;;;;;;;;;1.33;1.33;;;;;;;;5013033;28;50858;-64
2022/07/27 12:37:20;;;;;;;;;5.00;5.00;;;;;;;;5010860;28;52099;-64
2022/07/27 12:39:46;;;;;;;;;3.00;3.00;;;;;;;;5013435;28;50974;-63
2022/07/27 12:42:12;;;;;;;;;2.00;2.00;;;;;;;;5013672;28;50924;-64
2022/07/27 12:44:39;;;;;;;;;3.00;2.33;;;;;;;;5013291;28;51314;-64
2022/07/27 12:50:02;;;;;;;;;0.67;0.67;;;;;;;;5013308;28;51050;-64
2022/07/27 12:52:27;;;;;;;;;2.00;2.00;;;;;;;;5004929;28;50969;-64
2022/07/27 12:54:52;;;;;;;;;3.00;2.00;;;;;;;;5013665;28;51366;-65
2022/07/27 12:57:17;;;;;;;;;3.00;3.00;;;;;;;;5012362;28;52397;-65
2022/07/27 12:59:46;;;;;;;;;2.67;2.00;;;;;;;;5012955;28;50960;-65
2022/07/27 13:02:11;;;;;;;;;1.00;1.00;;;;;;;;5027028;28;51264;-64
2022/07/27 13:04:36;;;;;;;;;1.67;1.67;;;;;;;;5023301;28;50925;-64
2022/07/27 13:07:02;;;;;;;;;2.00;2.00;;;;;;;;5028194;28;50924;-65
2022/07/27 13:09:27;;;;;;;;;2.00;2.00;;;;;;;;5025205;28;51062;-65
2022/07/27 13:11:53;;;;;;;;;1.00;1.00;;;;;;;;5011884;28;51535;-63
2022/07/27 13:14:18;;;;;;;;;2.00;2.00;;;;;;;;5013347;28;51095;-65
2022/07/27 13:16:44;;;;;;;;;2.00;2.00;;;;;;;;5002469;28;51108;-65
2022/07/27 13:19:12;;;;;;;;;2.00;2.00;;;;;;;;5012224;28;51052;-65
2022/07/27 13:21:37;;;;;;;;;1.67;1.67;;;;;;;;5011133;28;51203;-64
2022/07/27 13:24:03;;;;;;;;;2.00;2.00;;;;;;;;5013212;28;51188;-65
2022/07/27 13:26:28;;;;;;;;;2.00;2.00;;;;;;;;5012619;28;51950;-64
2022/07/27 13:28:53;;;;;;;;;1.00;1.00;;;;;;;;5013194;28;50917;-66
2022/07/27 13:31:19;;;;;;;;;3.00;2.00;;;;;;;;4994967;28;50918;-64
2022/07/27 13:33:44;;;;;;;;;1.67;1.00;;;;;;;;5006960;28;51243;-65
2022/07/27 13:36:09;;;;;;;;;2.00;1.67;;;;;;;;5014459;28;52660;-64
2022/07/27 13:38:35;;;;;;;;;2.00;2.00;;;;;;;;5033956;28;50952;-65
2022/07/27 13:41:00;;;;;;;;;1.00;1.00;;;;;;;;5034430;28;51149;-64
2022/07/27 13:43:25;;;;;;;;;2.00;2.00;;;;;;;;5025444;28;51105;-64
2022/07/27 13:45:51;;;;;;;;;2.67;2.67;;;;;;;;5013290;28;52233;-65
2022/07/27 13:48:16;;;;;;;;;2.33;2.00;;;;;;;;5011862;28;50952;-65
2022/07/27 13:50:41;;;;;;;;;2.33;2.33;;;;;;;;5012745;28;51066;-64
2022/07/27 13:53:07;;;;;;;;;2.00;2.00;;;;;;;;5020063;28;51374;-64
2022/07/27 13:55:33;;;;;;;;;1.00;1.00;;;;;;;;5019167;28;53902;-65
2022/07/27 13:57:58;;;;;;;;;4.00;4.00;;;;;;;;5020948;28;51004;-64
2022/07/27 14:00:23;;;;;;;;;4.00;3.00;;;;;;;;5028796;28;50955;-65
2022/07/27 14:02:48;;;;;;;;;1.33;1.00;;;;;;;;5013001;28;51096;-63
2022/07/27 14:05:13;;;;;;;;;1.67;1.67;;;;;;;;5012555;28;51289;-64
2022/07/27 14:07:39;;;;;;;;;2.00;1.00;;;;;;;;5009890;28;51180;-63
2022/07/27 14:12:48;;;;;;;;;2.33;2.00;;;;;;;;5021818;28;50919;-64
2022/07/27 14:15:13;;;;;;;;;2.33;1.67;;;;;;;;5015961;28;51770;-63
2022/07/27 14:17:39;;;;;;;;;2.33;1.33;;;;;;;;5009563;28;51247;-65
2022/07/27 14:20:05;;;;;;;;;1.00;1.00;;;;;;;;5024899;28;50971;-64
2022/07/27 14:22:30;;;;;;;;;1.00;1.00;;;;;;;;5012575;28;51124;-64
2022/07/27 14:24:55;;;;;;;;;1.00;1.00;;;;;;;;5012788;28;50976;-65
2022/07/27 14:27:21;;;;;;;;;1.67;1.67;;;;;;;;5000835;28;51109;-64
2022/07/27 14:29:46;;;;;;;;;1.00;1.00;;;;;;;;5024925;28;51148;-64
2022/07/27 14:32:11;;;;;;;;;1.00;1.00;;;;;;;;5020726;28;51019;-64
2022/07/27 14:34:36;;;;;;;;;1.00;1.00;;;;;;;;5012545;28;51802;-64
2022/07/27 14:37:01;;;;;;;;;1.00;1.00;;;;;;;;5011569;28;51162;-64
2022/07/27 14:39:27;;;;;;;;;1.00;1.00;;;;;;;;5011696;28;51261;-64
2022/07/27 14:41:52;;;;;;;;;2.00;1.67;;;;;;;;5013044;28;51092;-65
2022/07/27 14:44:18;;;;;;;;;2.00;2.00;;;;;;;;5011661;28;52065;-64
2022/07/27 14:46:43;;;;;;;;;1.00;1.00;;;;;;;;5010987;28;50933;-64
2022/07/27 14:49:08;;;;;;;;;2.00;2.00;;;;;;;;5012013;28;50889;-65
2022/07/27 14:51:34;;;;;;;;;0.00;0.00;;;;;;;;5015211;28;51330;-65